sensor_id;sensor_type;location;lat;lon;timestamp;pressure;altitude;pressure_sealevel;temperature;humidity
50242;BME280;36126;43.222;27.874;2022-11-15T00:02:07;102085.63;;;9.27;100.00
50242;BME280;36126;43.222;27.874;2022-11-15T00:04:32;102083.03;;;9.26;100.00
50242;BME280;36126;43.222;27.874;2022-11-15T00:06:58;102092.06;;;8.98;100.00
50242;BME280;36126;43.222;27.874;2022-11-15T00:09:24;102093.22;;;9.04;100.00
50242;BME280;36126;43.222;27.874;2022-11-15T00:11:50;102088.72;;;9.02;100.00
50242;BME280;36126;43.222;27.874;2022-11-15T00:14:16;102089.94;;;9.00;100.00
50242;BME280;36126;43.222;27.874;2022-11-15T00:16:41;102084.59;;;8.98;100.00
50242;BME280;36126;43.222;27.874;2022-11-15T00:19:07;102084.59;;;8.98;100.00
50242;BME280;36126;43.222;27.874;2022-11-15T00:21:32;102085.19;;;8.79;100.00
50242;BME280;36126;43.222;27.874;2022-11-15T00:23:58;102091.78;;;8.93;100.00
50242;BME280;36126;43.222;27.874;2022-11-15T00:26:23;102081.63;;;8.85;100.00
50242;BME280;36126;43.222;27.874;2022-11-15T00:28:48;102078.38;;;8.66;100.00
50242;BME280;36126;43.222;27.874;2022-11-15T00:31:16;102084.59;;;8.68;100.00
50242;BME280;36126;43.222;27.874;2022-11-15T00:33:42;102082.78;;;8.76;100.00
50242;BME280;36126;43.222;27.874;2022-11-15T00:36:08;102086.81;;;8.88;100.00
50242;BME280;36126;43.222;27.874;2022-11-15T00:38:37;102078.97;;;8.92;100.00
50242;BME280;36126;43.222;27.874;2022-11-15T00:41:03;102071.78;;;8.97;100.00
50242;BME280;36126;43.222;27.874;2022-11-15T00:43:29;102073.31;;;9.00;100.00
50242;BME280;36126;43.222;27.874;2022-11-15T00:45:55;102069.19;;;9.11;100.00
50242;BME280;36126;43.222;27.874;2022-11-15T00:48:20;102069.47;;;9.16;100.00
50242;BME280;36126;43.222;27.874;2022-11-15T00:50:45;102072.38;;;9.08;100.00
50242;BME280;36126;43.222;27.874;2022-11-15T00:53:11;102062.50;;;9.20;100.00
50242;BME280;36126;43.222;27.874;2022-11-15T00:55:36;102069.63;;;9.29;100.00
50242;BME280;36126;43.222;27.874;2022-11-15T00:58:01;102064.94;;;9.45;100.00
50242;BME280;36126;43.222;27.874;2022-11-15T01:00:27;102062.41;;;9.50;100.00
50242;BME280;36126;43.222;27.874;2022-11-15T01:02:52;102055.53;;;9.46;100.00
50242;BME280;36126;43.222;27.874;2022-11-15T01:05:18;102061.34;;;9.51;100.00
50242;BME280;36126;43.222;27.874;2022-11-15T01:07:43;102057.84;;;9.42;100.00
50242;BME280;36126;43.222;27.874;2022-11-15T01:10:08;102051.81;;;9.39;100.00
50242;BME280;36126;43.222;27.874;2022-11-15T01:12:34;102052.72;;;9.24;100.00
50242;BME280;36126;43.222;27.874;2022-11-15T01:14:59;102056.72;;;9.36;100.00
50242;BME280;36126;43.222;27.874;2022-11-15T01:17:24;102059.84;;;9.48;100.00
50242;BME280;36126;43.222;27.874;2022-11-15T01:19:50;102058.28;;;9.24;100.00
50242;BME280;36126;43.222;27.874;2022-11-15T01:22:15;102057.28;;;9.32;100.00
50242;BME280;36126;43.222;27.874;2022-11-15T01:24:41;102066.38;;;9.41;100.00
50242;BME280;36126;43.222;27.874;2022-11-15T01:27:06;102058.38;;;9.31;100.00
50242;BME280;36126;43.222;27.874;2022-11-15T01:29:31;102053.25;;;9.13;100.00
50242;BME280;36126;43.222;27.874;2022-11-15T01:31:56;102054.84;;;9.07;100.00
50242;BME280;36126;43.222;27.874;2022-11-15T01:34:22;102053.88;;;9.15;100.00
50242;BME280;36126;43.222;27.874;2022-11-15T01:36:47;102046.56;;;8.92;100.00
50242;BME280;36126;43.222;27.874;2022-11-15T01:39:13;102060.47;;;9.14;100.00
50242;BME280;36126;43.222;27.874;2022-11-15T01:41:38;102051.19;;;9.36;100.00
50242;BME280;36126;43.222;27.874;2022-11-15T01:46:47;102048.66;;;8.90;100.00
50242;BME280;36126;43.222;27.874;2022-11-15T01:49:14;102057.72;;;8.54;100.00
50242;BME280;36126;43.222;27.874;2022-11-15T01:51:41;102054.66;;;8.49;100.00
50242;BME280;36126;43.222;27.874;2022-11-15T01:54:08;102057.69;;;8.39;100.00
50242;BME280;36126;43.222;27.874;2022-11-15T01:56:36;102050.13;;;8.33;100.00
50242;BME280;36126;43.222;27.874;2022-11-15T01:59:04;102048.38;;;8.17;100.00
50242;BME280;36126;43.222;27.874;2022-11-15T02:01:31;102042.28;;;8.37;100.00
50242;BME280;36126;43.222;27.874;2022-11-15T02:04:43;102040.50;;;8.29;100.00
50242;BME280;36126;43.222;27.874;2022-11-15T02:06:43;102043.84;;;8.39;100.00
50242;BME280;36126;43.222;27.874;2022-11-15T02:09:09;102038.78;;;8.43;100.00
50242;BME280;36126;43.222;27.874;2022-11-15T02:11:35;102040.81;;;8.49;100.00
50242;BME280;36126;43.222;27.874;2022-11-15T02:14:01;102041.81;;;8.56;100.00
50242;BME280;36126;43.222;27.874;2022-11-15T02:19:02;102037.38;;;8.77;100.00
50242;BME280;36126;43.222;27.874;2022-11-15T02:21:36;102041.59;;;8.88;100.00
50242;BME280;36126;43.222;27.874;2022-11-15T02:31:33;102026.38;;;8.98;100.00
50242;BME280;36126;43.222;27.874;2022-11-15T02:39:11;102027.59;;;9.11;100.00
50242;BME280;36126;43.222;27.874;2022-11-15T02:44:55;102024.41;;;8.92;100.00
50242;BME280;36126;43.222;27.874;2022-11-15T02:47:21;102022.19;;;8.73;100.00
50242;BME280;36126;43.222;27.874;2022-11-15T02:49:52;102024.19;;;8.79;100.00
50242;BME280;36126;43.222;27.874;2022-11-15T02:52:22;102009.31;;;8.80;100.00
50242;BME280;36126;43.222;27.874;2022-11-15T02:57:27;102009.75;;;8.98;100.00
50242;BME280;36126;43.222;27.874;2022-11-15T03:05:30;101999.06;;;8.50;100.00
50242;BME280;36126;43.222;27.874;2022-11-15T03:10:26;102006.63;;;8.57;100.00
50242;BME280;36126;43.222;27.874;2022-11-15T03:12:57;101999.47;;;8.62;100.00
50242;BME280;36126;43.222;27.874;2022-11-15T03:15:29;101998.22;;;8.65;100.00
50242;BME280;36126;43.222;27.874;2022-11-15T03:18:00;102005.75;;;8.71;100.00
50242;BME280;36126;43.222;27.874;2022-11-15T03:20:27;102005.94;;;8.70;100.00
50242;BME280;36126;43.222;27.874;2022-11-15T03:22:53;102001.28;;;8.70;100.00
50242;BME280;36126;43.222;27.874;2022-11-15T03:25:20;102002.78;;;8.73;100.00
50242;BME280;36126;43.222;27.874;2022-11-15T03:27:50;101995.91;;;8.83;100.00
50242;BME280;36126;43.222;27.874;2022-11-15T03:30:17;101989.03;;;8.64;100.00
50242;BME280;36126;43.222;27.874;2022-11-15T03:32:48;101984.47;;;8.57;100.00
50242;BME280;36126;43.222;27.874;2022-11-15T03:35:18;101982.34;;;8.59;100.00
50242;BME280;36126;43.222;27.874;2022-11-15T03:40:14;101977.78;;;8.51;100.00
50242;BME280;36126;43.222;27.874;2022-11-15T03:42:44;101975.47;;;8.55;100.00
50242;BME280;36126;43.222;27.874;2022-11-15T03:45:16;101975.28;;;8.71;100.00
50242;BME280;36126;43.222;27.874;2022-11-15T03:47:49;101973.94;;;8.67;100.00
50242;BME280;36126;43.222;27.874;2022-11-15T03:50:20;101965.81;;;8.65;100.00
50242;BME280;36126;43.222;27.874;2022-11-15T03:52:46;101973.09;;;8.66;100.00
50242;BME280;36126;43.222;27.874;2022-11-15T03:55:14;101967.75;;;8.65;100.00
50242;BME280;36126;43.222;27.874;2022-11-15T03:57:40;101962.28;;;8.87;100.00
50242;BME280;36126;43.222;27.874;2022-11-15T04:00:05;101963.66;;;8.97;100.00
50242;BME280;36126;43.222;27.874;2022-11-15T04:02:31;101960.03;;;8.97;100.00
50242;BME280;36126;43.222;27.874;2022-11-15T04:04:56;101962.28;;;8.87;100.00
50242;BME280;36126;43.222;27.874;2022-11-15T04:07:21;101961.41;;;8.71;100.00
50242;BME280;36126;43.222;27.874;2022-11-15T04:09:47;101965.41;;;8.83;100.00
50242;BME280;36126;43.222;27.874;2022-11-15T04:12:28;101961.28;;;8.94;100.00
50242;BME280;36126;43.222;27.874;2022-11-15T04:15:00;101958.84;;;8.70;100.00
50242;BME280;36126;43.222;27.874;2022-11-15T04:17:36;101962.84;;;8.67;100.00
50242;BME280;36126;43.222;27.874;2022-11-15T04:20:02;101960.38;;;8.57;100.00
50242;BME280;36126;43.222;27.874;2022-11-15T04:22:46;101969.63;;;8.79;100.00
50242;BME280;36126;43.222;27.874;2022-11-15T04:25:30;101964.91;;;8.95;100.00
50242;BME280;36126;43.222;27.874;2022-11-15T04:27:56;101961.56;;;8.99;100.00
50242;BME280;36126;43.222;27.874;2022-11-15T04:30:24;101965.75;;;9.10;100.00
50242;BME280;36126;43.222;27.874;2022-11-15T04:32:50;101965.31;;;8.92;100.00
50242;BME280;36126;43.222;27.874;2022-11-15T04:35:15;101965.41;;;8.83;100.00
50242;BME280;36126;43.222;27.874;2022-11-15T04:37:40;101961.31;;;8.64;100.00
50242;BME280;36126;43.222;27.874;2022-11-15T04:40:06;101953.50;;;8.68;100.00
50242;BME280;36126;43.222;27.874;2022-11-15T04:42:31;101951.97;;;8.65;100.00
50242;BME280;36126;43.222;27.874;2022-11-15T04:44:57;101953.91;;;8.50;100.00
50242;BME280;36126;43.222;27.874;2022-11-15T04:47:22;101955.63;;;8.51;100.00
50242;BME280;36126;43.222;27.874;2022-11-15T04:49:47;101966.00;;;8.64;100.00
50242;BME280;36126;43.222;27.874;2022-11-15T04:52:13;101959.53;;;8.72;100.00
50242;BME280;36126;43.222;27.874;2022-11-15T04:54:38;101953.28;;;8.70;100.00
50242;BME280;36126;43.222;27.874;2022-11-15T04:57:03;101955.97;;;8.63;100.00
50242;BME280;36126;43.222;27.874;2022-11-15T04:59:29;101957.91;;;8.62;100.00
50242;BME280;36126;43.222;27.874;2022-11-15T05:01:54;101955.78;;;8.64;100.00
50242;BME280;36126;43.222;27.874;2022-11-15T05:04:19;101950.19;;;8.58;100.00
50242;BME280;36126;43.222;27.874;2022-11-15T05:06:48;101948.97;;;8.82;100.00
50242;BME280;36126;43.222;27.874;2022-11-15T05:09:14;101956.13;;;8.91;100.00
50242;BME280;36126;43.222;27.874;2022-11-15T05:11:40;101957.16;;;9.05;100.00
50242;BME280;36126;43.222;27.874;2022-11-15T05:14:05;101948.59;;;8.85;100.00
50242;BME280;36126;43.222;27.874;2022-11-15T05:16:31;101951.09;;;8.80;100.00
50242;BME280;36126;43.222;27.874;2022-11-15T05:18:56;101951.34;;;8.85;100.00
50242;BME280;36126;43.222;27.874;2022-11-15T05:21:21;101952.22;;;8.85;100.00
50242;BME280;36126;43.222;27.874;2022-11-15T05:23:47;101958.59;;;9.01;100.00
50242;BME280;36126;43.222;27.874;2022-11-15T05:26:12;101967.19;;;9.06;100.00
50242;BME280;36126;43.222;27.874;2022-11-15T05:28:39;101962.69;;;9.05;100.00
50242;BME280;36126;43.222;27.874;2022-11-15T05:31:09;101966.19;;;9.14;100.00
50242;BME280;36126;43.222;27.874;2022-11-15T05:33:35;101965.94;;;9.30;100.00
50242;BME280;36126;43.222;27.874;2022-11-15T05:36:05;101967.16;;;9.43;100.00
50242;BME280;36126;43.222;27.874;2022-11-15T05:38:32;101962.19;;;9.60;100.00
50242;BME280;36126;43.222;27.874;2022-11-15T05:40:58;101952.34;;;9.14;100.00
50242;BME280;36126;43.222;27.874;2022-11-15T05:43:24;101957.53;;;9.02;100.00
50242;BME280;36126;43.222;27.874;2022-11-15T05:45:50;101958.78;;;8.99;100.00
50242;BME280;36126;43.222;27.874;2022-11-15T05:48:15;101961.78;;;9.19;100.00
50242;BME280;36126;43.222;27.874;2022-11-15T05:50:41;101950.06;;;9.39;100.00
50242;BME280;36126;43.222;27.874;2022-11-15T05:53:08;101955.91;;;9.29;100.00
50242;BME280;36126;43.222;27.874;2022-11-15T05:55:36;101957.50;;;9.39;100.00
50242;BME280;36126;43.222;27.874;2022-11-15T05:58:02;101953.28;;;9.64;100.00
50242;BME280;36126;43.222;27.874;2022-11-15T06:00:28;101969.31;;;9.69;100.00
50242;BME280;36126;43.222;27.874;2022-11-15T06:02:53;101957.78;;;9.65;100.00
50242;BME280;36126;43.222;27.874;2022-11-15T06:05:18;101960.41;;;9.74;100.00
50242;BME280;36126;43.222;27.874;2022-11-15T06:07:44;101955.56;;;9.82;100.00
50242;BME280;36126;43.222;27.874;2022-11-15T06:10:09;101954.81;;;9.67;100.00
50242;BME280;36126;43.222;27.874;2022-11-15T06:12:34;101956.50;;;9.68;100.00
50242;BME280;36126;43.222;27.874;2022-11-15T06:15:00;101956.75;;;9.95;100.00
50242;BME280;36126;43.222;27.874;2022-11-15T06:17:25;101955.78;;;10.37;100.00
50242;BME280;36126;43.222;27.874;2022-11-15T06:19:50;101965.03;;;10.23;100.00
50242;BME280;36126;43.222;27.874;2022-11-15T06:22:16;101950.47;;;10.43;100.00
50242;BME280;36126;43.222;27.874;2022-11-15T06:24:41;101954.81;;;10.59;100.00
50242;BME280;36126;43.222;27.874;2022-11-15T06:27:11;101949.03;;;10.53;100.00
50242;BME280;36126;43.222;27.874;2022-11-15T06:29:36;101952.88;;;10.52;100.00
50242;BME280;36126;43.222;27.874;2022-11-15T06:32:02;101951.94;;;10.38;100.00
50242;BME280;36126;43.222;27.874;2022-11-15T06:34:27;101958.34;;;10.39;100.00
50242;BME280;36126;43.222;27.874;2022-11-15T06:36:52;101952.69;;;10.54;100.00
50242;BME280;36126;43.222;27.874;2022-11-15T06:39:18;101948.59;;;10.50;100.00
50242;BME280;36126;43.222;27.874;2022-11-15T06:41:43;101952.63;;;10.19;100.00
50242;BME280;36126;43.222;27.874;2022-11-15T06:44:08;101952.03;;;10.24;100.00
50242;BME280;36126;43.222;27.874;2022-11-15T06:46:34;101949.06;;;10.60;100.00
50242;BME280;36126;43.222;27.874;2022-11-15T06:48:59;101958.41;;;10.94;100.00
50242;BME280;36126;43.222;27.874;2022-11-15T06:51:24;101942.22;;;11.18;100.00
50242;BME280;36126;43.222;27.874;2022-11-15T06:53:50;101946.84;;;10.91;100.00
50242;BME280;36126;43.222;27.874;2022-11-15T06:56:15;101940.03;;;11.00;100.00
50242;BME280;36126;43.222;27.874;2022-11-15T06:58:40;101947.94;;;11.03;100.00
50242;BME280;36126;43.222;27.874;2022-11-15T07:01:07;101941.38;;;11.17;100.00
50242;BME280;36126;43.222;27.874;2022-11-15T07:03:37;101950.34;;;11.13;100.00
50242;BME280;36126;43.222;27.874;2022-11-15T07:06:02;101949.47;;;11.12;100.00
50242;BME280;36126;43.222;27.874;2022-11-15T07:08:28;101958.25;;;11.09;100.00
50242;BME280;36126;43.222;27.874;2022-11-15T07:10:54;101953.34;;;11.18;100.00
50242;BME280;36126;43.222;27.874;2022-11-15T07:13:19;101954.69;;;10.74;100.00
50242;BME280;36126;43.222;27.874;2022-11-15T07:15:45;101948.91;;;10.75;100.00
50242;BME280;36126;43.222;27.874;2022-11-15T07:18:10;101951.50;;;10.77;100.00
50242;BME280;36126;43.222;27.874;2022-11-15T07:20:35;101942.38;;;11.03;100.00
50242;BME280;36126;43.222;27.874;2022-11-15T07:23:01;101948.13;;;10.95;100.00
50242;BME280;36126;43.222;27.874;2022-11-15T07:25:27;101943.47;;;11.09;100.00
50242;BME280;36126;43.222;27.874;2022-11-15T07:27:56;101947.34;;;11.21;100.00
50242;BME280;36126;43.222;27.874;2022-11-15T07:30:22;101942.19;;;11.11;100.00
50242;BME280;36126;43.222;27.874;2022-11-15T07:32:47;101947.28;;;10.94;100.00
50242;BME280;36126;43.222;27.874;2022-11-15T07:35:16;101940.31;;;11.25;100.00
50242;BME280;36126;43.222;27.874;2022-11-15T07:37:42;101945.88;;;11.32;100.00
50242;BME280;36126;43.222;27.874;2022-11-15T07:40:07;101945.44;;;11.28;100.00
50242;BME280;36126;43.222;27.874;2022-11-15T07:42:33;101945.13;;;10.89;100.00
50242;BME280;36126;43.222;27.874;2022-11-15T07:45:17;101948.44;;;11.13;100.00
50242;BME280;36126;43.222;27.874;2022-11-15T07:47:45;101941.06;;;10.85;100.00
50242;BME280;36126;43.222;27.874;2022-11-15T07:50:10;101943.44;;;10.47;100.00
50242;BME280;36126;43.222;27.874;2022-11-15T07:52:36;101945.41;;;10.53;100.00
50242;BME280;36126;43.222;27.874;2022-11-15T07:55:01;101940.13;;;10.65;100.00
50242;BME280;36126;43.222;27.874;2022-11-15T07:57:27;101940.53;;;10.68;100.00
50242;BME280;36126;43.222;27.874;2022-11-15T07:59:54;101936.47;;;10.64;100.00
50242;BME280;36126;43.222;27.874;2022-11-15T08:02:19;101942.88;;;10.58;100.00
50242;BME280;36126;43.222;27.874;2022-11-15T08:04:44;101941.44;;;10.76;100.00
50242;BME280;36126;43.222;27.874;2022-11-15T08:07:10;101942.53;;;10.88;100.00
50242;BME280;36126;43.222;27.874;2022-11-15T08:09:35;101949.97;;;10.74;100.00
50242;BME280;36126;43.222;27.874;2022-11-15T08:12:01;101947.91;;;10.89;100.00
50242;BME280;36126;43.222;27.874;2022-11-15T08:14:26;101947.66;;;10.78;100.00
50242;BME280;36126;43.222;27.874;2022-11-15T08:16:51;101942.78;;;10.93;100.00
50242;BME280;36126;43.222;27.874;2022-11-15T08:19:17;101943.91;;;11.05;100.00
50242;BME280;36126;43.222;27.874;2022-11-15T08:21:43;101943.78;;;11.34;100.00
50242;BME280;36126;43.222;27.874;2022-11-15T08:24:09;101932.44;;;11.55;100.00
50242;BME280;36126;43.222;27.874;2022-11-15T08:26:37;101930.72;;;11.48;100.00
50242;BME280;36126;43.222;27.874;2022-11-15T08:29:02;101930.94;;;11.53;100.00
50242;BME280;36126;43.222;27.874;2022-11-15T08:31:28;101935.84;;;11.44;100.00
50242;BME280;36126;43.222;27.874;2022-11-15T08:33:53;101925.13;;;11.28;100.00
50242;BME280;36126;43.222;27.874;2022-11-15T08:36:19;101928.13;;;11.26;100.00
50242;BME280;36126;43.222;27.874;2022-11-15T08:38:44;101922.38;;;11.61;100.00
50242;BME280;36126;43.222;27.874;2022-11-15T08:41:11;101928.16;;;11.60;100.00
50242;BME280;36126;43.222;27.874;2022-11-15T08:43:38;101921.31;;;12.02;100.00
50242;BME280;36126;43.222;27.874;2022-11-15T08:46:07;101920.22;;;11.43;100.00
50242;BME280;36126;43.222;27.874;2022-11-15T08:48:36;101910.38;;;11.34;100.00
50242;BME280;36126;43.222;27.874;2022-11-15T08:51:01;101911.69;;;11.71;100.00
50242;BME280;36126;43.222;27.874;2022-11-15T08:53:27;101907.59;;;11.54;100.00
50242;BME280;36126;43.222;27.874;2022-11-15T08:55:52;101898.19;;;11.55;100.00
50242;BME280;36126;43.222;27.874;2022-11-15T08:58:18;101894.34;;;11.56;100.00
50242;BME280;36126;43.222;27.874;2022-11-15T09:00:46;101895.59;;;11.87;100.00
50242;BME280;36126;43.222;27.874;2022-11-15T09:03:14;101895.19;;;12.03;100.00
50242;BME280;36126;43.222;27.874;2022-11-15T09:05:40;101882.28;;;12.16;100.00
50242;BME280;36126;43.222;27.874;2022-11-15T09:08:05;101881.84;;;12.25;100.00
50242;BME280;36126;43.222;27.874;2022-11-15T09:10:31;101884.19;;;12.29;100.00
50242;BME280;36126;43.222;27.874;2022-11-15T09:12:57;101878.81;;;12.34;100.00
50242;BME280;36126;43.222;27.874;2022-11-15T09:15:22;101880.56;;;12.15;100.00
50242;BME280;36126;43.222;27.874;2022-11-15T09:17:47;101872.56;;;12.38;100.00
50242;BME280;36126;43.222;27.874;2022-11-15T09:20:13;101875.22;;;12.20;100.00
50242;BME280;36126;43.222;27.874;2022-11-15T09:22:41;101866.03;;;12.06;100.00
50242;BME280;36126;43.222;27.874;2022-11-15T09:25:10;101866.38;;;12.36;100.00
50242;BME280;36126;43.222;27.874;2022-11-15T09:27:38;101858.47;;;12.33;100.00
50242;BME280;36126;43.222;27.874;2022-11-15T09:30:03;101860.63;;;12.24;100.00
50242;BME280;36126;43.222;27.874;2022-11-15T09:32:29;101863.38;;;12.31;100.00
50242;BME280;36126;43.222;27.874;2022-11-15T09:34:55;101856.75;;;12.32;100.00
50242;BME280;36126;43.222;27.874;2022-11-15T09:37:20;101857.53;;;12.46;100.00
50242;BME280;36126;43.222;27.874;2022-11-15T09:39:46;101851.78;;;12.41;100.00
50242;BME280;36126;43.222;27.874;2022-11-15T09:44:46;101851.22;;;12.71;100.00
50242;BME280;36126;43.222;27.874;2022-11-15T09:49:55;101841.78;;;13.04;100.00
50242;BME280;36126;43.222;27.874;2022-11-15T09:52:22;101827.84;;;13.36;100.00
50242;BME280;36126;43.222;27.874;2022-11-15T09:54:49;101823.09;;;13.36;100.00
50242;BME280;36126;43.222;27.874;2022-11-15T09:57:16;101831.16;;;13.95;100.00
50242;BME280;36126;43.222;27.874;2022-11-15T09:59:46;101826.63;;;13.75;100.00
50242;BME280;36126;43.222;27.874;2022-11-15T10:04:56;101812.84;;;13.99;100.00
50242;BME280;36126;43.222;27.874;2022-11-15T10:10:27;101812.28;;;14.09;100.00
50242;BME280;36126;43.222;27.874;2022-11-15T10:12:55;101811.56;;;13.76;100.00
50242;BME280;36126;43.222;27.874;2022-11-15T10:15:20;101814.22;;;13.46;100.00
50242;BME280;36126;43.222;27.874;2022-11-15T10:20:26;101809.34;;;13.60;100.00
50242;BME280;36126;43.222;27.874;2022-11-15T10:23:11;101800.19;;;13.97;100.00
50242;BME280;36126;43.222;27.874;2022-11-15T10:25:36;101788.06;;;13.84;100.00
50242;BME280;36126;43.222;27.874;2022-11-15T10:30:33;101785.03;;;13.67;100.00
50242;BME280;36126;43.222;27.874;2022-11-15T10:32:59;101778.38;;;14.05;100.00
50242;BME280;36126;43.222;27.874;2022-11-15T10:35:34;101776.66;;;14.04;100.00
50242;BME280;36126;43.222;27.874;2022-11-15T10:38:06;101772.47;;;14.14;100.00
50242;BME280;36126;43.222;27.874;2022-11-15T10:40:32;101773.38;;;14.44;100.00
50242;BME280;36126;43.222;27.874;2022-11-15T10:43:05;101772.31;;;14.88;100.00
50242;BME280;36126;43.222;27.874;2022-11-15T10:45:32;101764.28;;;14.61;100.00
50242;BME280;36126;43.222;27.874;2022-11-15T10:50:37;101756.91;;;14.97;100.00
50242;BME280;36126;43.222;27.874;2022-11-15T10:53:03;101752.94;;;15.40;100.00
50242;BME280;36126;43.222;27.874;2022-11-15T10:55:36;101741.94;;;15.03;100.00
50242;BME280;36126;43.222;27.874;2022-11-15T10:58:03;101741.47;;;15.30;100.00
50242;BME280;36126;43.222;27.874;2022-11-15T11:50:51;101663.91;;;15.42;100.00
50242;BME280;36126;43.222;27.874;2022-11-15T11:54:03;101661.31;;;15.64;100.00
50242;BME280;36126;43.222;27.874;2022-11-15T11:56:28;101659.47;;;15.82;100.00
50242;BME280;36126;43.222;27.874;2022-11-15T11:59:05;101648.72;;;15.91;100.00
50242;BME280;36126;43.222;27.874;2022-11-15T12:01:36;101644.13;;;15.85;100.00
50242;BME280;36126;43.222;27.874;2022-11-15T12:04:39;101642.06;;;15.68;100.00
50242;BME280;36126;43.222;27.874;2022-11-15T12:11:56;101644.78;;;16.04;100.00
50242;BME280;36126;43.222;27.874;2022-11-15T12:14:31;101635.69;;;16.42;100.00
50242;BME280;36126;43.222;27.874;2022-11-15T12:16:58;101631.91;;;16.65;100.00
50242;BME280;36126;43.222;27.874;2022-11-15T12:19:24;101629.69;;;16.51;100.00
50242;BME280;36126;43.222;27.874;2022-11-15T12:25:08;101617.88;;;15.91;100.00
50242;BME280;36126;43.222;27.874;2022-11-15T12:27:41;101613.50;;;15.95;100.00
50242;BME280;36126;43.222;27.874;2022-11-15T12:30:11;101618.41;;;16.33;100.00
50242;BME280;36126;43.222;27.874;2022-11-15T12:32:38;101607.41;;;16.78;100.00
50242;BME280;36126;43.222;27.874;2022-11-15T12:35:06;101602.41;;;16.17;100.00
50242;BME280;36126;43.222;27.874;2022-11-15T12:37:47;101605.19;;;16.63;100.00
50242;BME280;36126;43.222;27.874;2022-11-15T12:40:17;101597.09;;;16.32;100.00
50242;BME280;36126;43.222;27.874;2022-11-15T12:48:21;101590.63;;;16.32;100.00
50242;BME280;36126;43.222;27.874;2022-11-15T12:58:50;101581.72;;;16.35;100.00
50242;BME280;36126;43.222;27.874;2022-11-15T13:11:52;101564.69;;;16.08;100.00
50242;BME280;36126;43.222;27.874;2022-11-15T13:17:02;101558.28;;;16.24;100.00
50242;BME280;36126;43.222;27.874;2022-11-15T13:19:28;101557.66;;;16.05;100.00
50242;BME280;36126;43.222;27.874;2022-11-15T13:21:53;101553.53;;;15.96;100.00
50242;BME280;36126;43.222;27.874;2022-11-15T13:24:38;101549.13;;;15.71;100.00
50242;BME280;36126;43.222;27.874;2022-11-15T13:27:10;101544.38;;;15.72;100.00
50242;BME280;36126;43.222;27.874;2022-11-15T13:29:43;101539.53;;;15.96;100.00
50242;BME280;36126;43.222;27.874;2022-11-15T13:32:12;101545.59;;;15.35;100.00
50242;BME280;36126;43.222;27.874;2022-11-15T13:34:38;101545.25;;;15.32;100.00
50242;BME280;36126;43.222;27.874;2022-11-15T13:37:11;101546.66;;;15.05;100.00
50242;BME280;36126;43.222;27.874;2022-11-15T13:39:41;101540.25;;;15.22;100.00
50242;BME280;36126;43.222;27.874;2022-11-15T13:42:13;101539.31;;;15.16;100.00
50242;BME280;36126;43.222;27.874;2022-11-15T13:44:39;101536.69;;;14.86;100.00
50242;BME280;36126;43.222;27.874;2022-11-15T13:47:14;101536.81;;;14.91;100.00
50242;BME280;36126;43.222;27.874;2022-11-15T13:49:40;101530.72;;;14.94;100.00
50242;BME280;36126;43.222;27.874;2022-11-15T13:52:07;101531.47;;;14.66;100.00
50242;BME280;36126;43.222;27.874;2022-11-15T13:54:55;101538.63;;;14.97;100.00
50242;BME280;36126;43.222;27.874;2022-11-15T13:57:24;101534.72;;;15.10;100.00
50242;BME280;36126;43.222;27.874;2022-11-15T14:02:20;101527.44;;;14.85;100.00
50242;BME280;36126;43.222;27.874;2022-11-15T14:04:51;101519.41;;;14.53;100.00
50242;BME280;36126;43.222;27.874;2022-11-15T14:07:19;101524.22;;;14.22;100.00
50242;BME280;36126;43.222;27.874;2022-11-15T14:09:44;101528.47;;;14.13;100.00
50242;BME280;36126;43.222;27.874;2022-11-15T14:12:25;101519.47;;;13.99;100.00
50242;BME280;36126;43.222;27.874;2022-11-15T14:14:50;101515.03;;;13.80;100.00
50242;BME280;36126;43.222;27.874;2022-11-15T14:17:19;101513.69;;;13.82;100.00
50242;BME280;36126;43.222;27.874;2022-11-15T14:19:45;101503.97;;;13.85;100.00
50242;BME280;36126;43.222;27.874;2022-11-15T14:22:18;101504.72;;;13.92;100.00
50242;BME280;36126;43.222;27.874;2022-11-15T14:24:46;101499.13;;;13.80;100.00
50242;BME280;36126;43.222;27.874;2022-11-15T14:27:16;101491.50;;;13.57;100.00
50242;BME280;36126;43.222;27.874;2022-11-15T14:29:41;101494.91;;;13.29;100.00
50242;BME280;36126;43.222;27.874;2022-11-15T14:32:15;101490.38;;;13.27;100.00
50242;BME280;36126;43.222;27.874;2022-11-15T14:34:41;101481.34;;;13.14;100.00
50242;BME280;36126;43.222;27.874;2022-11-15T14:37:18;101477.31;;;12.91;100.00
50242;BME280;36126;43.222;27.874;2022-11-15T14:39:44;101475.75;;;12.95;100.00
50242;BME280;36126;43.222;27.874;2022-11-15T14:42:09;101477.22;;;12.61;100.00
50242;BME280;36126;43.222;27.874;2022-11-15T14:44:34;101480.09;;;12.54;100.00
50242;BME280;36126;43.222;27.874;2022-11-15T14:47:00;101469.88;;;12.48;100.00
50242;BME280;36126;43.222;27.874;2022-11-15T14:49:25;101466.72;;;12.19;100.00
50242;BME280;36126;43.222;27.874;2022-11-15T14:51:51;101471.75;;;12.29;100.00
50242;BME280;36126;43.222;27.874;2022-11-15T14:54:16;101474.91;;;12.14;100.00
50242;BME280;36126;43.222;27.874;2022-11-15T14:56:41;101464.69;;;12.07;100.00
50242;BME280;36126;43.222;27.874;2022-11-15T14:59:07;101473.56;;;11.91;100.00